Foster, Virginia
Current Conditions -  °F | °C
As of 2:55 AM on Saturday 25 Oct 2014 (Local Time) from KW75 Reporting Station
Clear Clear  
Wind Chill: 54°   Ceiling: Unl
Heat Index: 54°   Visibility: 10mi
Dew Point: 42°   Wind: 9mph
Humidity: 63%   Direction: 350°N
Pressure: 29.95"   Gusts: NA
Location:  37.45°N, 76.39°W
Report Text: KW75 250655Z AUTO 35008KT 300V010 10SM CLR 12/06 A2995 RMK AO1 T01230055
Loading
Personal Weather Stations






























Interactive Weather Map
Tropical Storm Tracking
New forecast layout! Learn more

10-Day Weather Forecast

Advertisements
Track Severe Weather on mobile